sensor_id;sensor_type;location;lat;lon;timestamp;temperature;humidity
74617;DHT22;63123;50.906;4.198;2024-02-16T00:01:40;17.10;61.50
74617;DHT22;63123;50.906;4.198;2024-02-16T00:04:06;17.10;61.60
74617;DHT22;63123;50.906;4.198;2024-02-16T00:06:32;17.20;61.60
74617;DHT22;63123;50.906;4.198;2024-02-16T00:08:59;17.20;61.60
74617;DHT22;63123;50.906;4.198;2024-02-16T00:11:24;17.10;61.50
74617;DHT22;63123;50.906;4.198;2024-02-16T00:13:50;17.10;61.50
74617;DHT22;63123;50.906;4.198;2024-02-16T00:16:16;17.10;61.50
74617;DHT22;63123;50.906;4.198;2024-02-16T00:18:41;17.10;61.60
74617;DHT22;63123;50.906;4.198;2024-02-16T00:21:07;17.10;61.60
74617;DHT22;63123;50.906;4.198;2024-02-16T00:23:32;17.10;61.60
74617;DHT22;63123;50.906;4.198;2024-02-16T00:25:59;17.10;61.60
74617;DHT22;63123;50.906;4.198;2024-02-16T00:28:26;17.10;61.70
74617;DHT22;63123;50.906;4.198;2024-02-16T00:30:51;17.20;61.60
74617;DHT22;63123;50.906;4.198;2024-02-16T00:33:16;17.10;61.50
74617;DHT22;63123;50.906;4.198;2024-02-16T00:35:44;17.10;61.70
74617;DHT22;63123;50.906;4.198;2024-02-16T00:38:09;17.10;61.70
74617;DHT22;63123;50.906;4.198;2024-02-16T00:40:35;17.20;61.70
74617;DHT22;63123;50.906;4.198;2024-02-16T00:43:00;17.10;61.60
74617;DHT22;63123;50.906;4.198;2024-02-16T00:45:26;17.10;61.70
74617;DHT22;63123;50.906;4.198;2024-02-16T00:47:52;17.20;61.70
74617;DHT22;63123;50.906;4.198;2024-02-16T00:50:18;17.10;61.60
74617;DHT22;63123;50.906;4.198;2024-02-16T00:52:43;17.10;61.50
74617;DHT22;63123;50.906;4.198;2024-02-16T00:55:11;17.20;61.70
74617;DHT22;63123;50.906;4.198;2024-02-16T00:57:38;17.10;61.60
74617;DHT22;63123;50.906;4.198;2024-02-16T01:00:03;17.10;61.70
74617;DHT22;63123;50.906;4.198;2024-02-16T01:02:29;17.20;61.60
74617;DHT22;63123;50.906;4.198;2024-02-16T01:04:57;17.10;61.70
74617;DHT22;63123;50.906;4.198;2024-02-16T01:07:27;17.10;61.60
74617;DHT22;63123;50.906;4.198;2024-02-16T01:09:52;17.10;61.60
74617;DHT22;63123;50.906;4.198;2024-02-16T01:12:18;17.10;61.50
74617;DHT22;63123;50.906;4.198;2024-02-16T01:14:43;17.10;61.50
74617;DHT22;63123;50.906;4.198;2024-02-16T01:17:09;17.10;61.60
74617;DHT22;63123;50.906;4.198;2024-02-16T01:19:34;17.10;61.50
74617;DHT22;63123;50.906;4.198;2024-02-16T01:22:00;17.10;61.60
74617;DHT22;63123;50.906;4.198;2024-02-16T01:24:25;17.10;61.70
74617;DHT22;63123;50.906;4.198;2024-02-16T01:26:52;17.10;61.60
74617;DHT22;63123;50.906;4.198;2024-02-16T01:29:17;17.10;61.60
74617;DHT22;63123;50.906;4.198;2024-02-16T01:31:43;17.10;61.60
74617;DHT22;63123;50.906;4.198;2024-02-16T01:34:08;17.10;61.60
74617;DHT22;63123;50.906;4.198;2024-02-16T01:36:34;17.20;61.60
74617;DHT22;63123;50.906;4.198;2024-02-16T01:38:59;17.10;61.70
74617;DHT22;63123;50.906;4.198;2024-02-16T01:41:24;17.10;61.60
74617;DHT22;63123;50.906;4.198;2024-02-16T01:43:53;17.10;61.60
74617;DHT22;63123;50.906;4.198;2024-02-16T01:46:20;17.10;61.60
74617;DHT22;63123;50.906;4.198;2024-02-16T01:48:45;17.10;61.60
74617;DHT22;63123;50.906;4.198;2024-02-16T01:51:11;17.10;61.70
74617;DHT22;63123;50.906;4.198;2024-02-16T01:53:37;17.10;61.70
74617;DHT22;63123;50.906;4.198;2024-02-16T01:56:03;17.10;61.70
74617;DHT22;63123;50.906;4.198;2024-02-16T01:58:30;17.20;61.70
74617;DHT22;63123;50.906;4.198;2024-02-16T02:00:55;17.10;61.70
74617;DHT22;63123;50.906;4.198;2024-02-16T02:03:21;17.10;61.70
74617;DHT22;63123;50.906;4.198;2024-02-16T02:05:48;17.20;61.70
74617;DHT22;63123;50.906;4.198;2024-02-16T02:08:13;17.10;61.70
74617;DHT22;63123;50.906;4.198;2024-02-16T02:10:39;17.20;61.70
74617;DHT22;63123;50.906;4.198;2024-02-16T02:13:05;17.10;61.80
74617;DHT22;63123;50.906;4.198;2024-02-16T02:15:30;17.10;61.70
74617;DHT22;63123;50.906;4.198;2024-02-16T02:17:56;17.10;61.70
74617;DHT22;63123;50.906;4.198;2024-02-16T02:20:24;17.20;61.80
74617;DHT22;63123;50.906;4.198;2024-02-16T02:22:50;17.10;61.70
74617;DHT22;63123;50.906;4.198;2024-02-16T02:25:15;17.10;61.80
74617;DHT22;63123;50.906;4.198;2024-02-16T02:27:41;17.10;61.80
74617;DHT22;63123;50.906;4.198;2024-02-16T02:30:06;17.10;61.80
74617;DHT22;63123;50.906;4.198;2024-02-16T02:32:32;17.10;61.80
74617;DHT22;63123;50.906;4.198;2024-02-16T02:34:57;17.10;61.90
74617;DHT22;63123;50.906;4.198;2024-02-16T02:37:23;17.10;61.90
74617;DHT22;63123;50.906;4.198;2024-02-16T02:39:48;17.10;61.90
74617;DHT22;63123;50.906;4.198;2024-02-16T02:42:14;17.10;62.00
74617;DHT22;63123;50.906;4.198;2024-02-16T02:44:40;17.20;62.00
74617;DHT22;63123;50.906;4.198;2024-02-16T02:47:05;17.10;61.90
74617;DHT22;63123;50.906;4.198;2024-02-16T02:49:31;17.10;62.00
74617;DHT22;63123;50.906;4.198;2024-02-16T02:51:58;17.10;62.10
74617;DHT22;63123;50.906;4.198;2024-02-16T02:54:24;17.10;62.10
74617;DHT22;63123;50.906;4.198;2024-02-16T02:56:49;17.10;62.10
74617;DHT22;63123;50.906;4.198;2024-02-16T02:59:15;17.10;62.10
74617;DHT22;63123;50.906;4.198;2024-02-16T03:01:40;17.10;62.10
74617;DHT22;63123;50.906;4.198;2024-02-16T03:04:05;17.10;62.10
74617;DHT22;63123;50.906;4.198;2024-02-16T03:06:31;17.10;62.20
74617;DHT22;63123;50.906;4.198;2024-02-16T03:08:56;17.10;62.10
74617;DHT22;63123;50.906;4.198;2024-02-16T03:11:22;17.10;62.20
74617;DHT22;63123;50.906;4.198;2024-02-16T03:13:47;17.10;62.20
74617;DHT22;63123;50.906;4.198;2024-02-16T03:16:13;17.10;62.20
74617;DHT22;63123;50.906;4.198;2024-02-16T03:18:39;17.10;62.30
74617;DHT22;63123;50.906;4.198;2024-02-16T03:21:04;17.10;62.40
74617;DHT22;63123;50.906;4.198;2024-02-16T03:23:30;17.10;62.30
74617;DHT22;63123;50.906;4.198;2024-02-16T03:25:55;17.10;62.30
74617;DHT22;63123;50.906;4.198;2024-02-16T03:28:21;17.10;62.30
74617;DHT22;63123;50.906;4.198;2024-02-16T03:30:46;17.10;62.30
74617;DHT22;63123;50.906;4.198;2024-02-16T03:33:12;17.10;62.30
74617;DHT22;63123;50.906;4.198;2024-02-16T03:35:38;17.10;62.30
74617;DHT22;63123;50.906;4.198;2024-02-16T03:38:05;17.10;62.40
74617;DHT22;63123;50.906;4.198;2024-02-16T03:40:31;17.10;62.40
74617;DHT22;63123;50.906;4.198;2024-02-16T03:42:57;17.10;62.40
74617;DHT22;63123;50.906;4.198;2024-02-16T03:45:23;17.10;62.50
74617;DHT22;63123;50.906;4.198;2024-02-16T03:47:48;17.10;62.50
74617;DHT22;63123;50.906;4.198;2024-02-16T03:50:14;17.10;62.50
74617;DHT22;63123;50.906;4.198;2024-02-16T03:52:40;17.10;62.60
74617;DHT22;63123;50.906;4.198;2024-02-16T03:55:05;17.10;62.50
74617;DHT22;63123;50.906;4.198;2024-02-16T03:57:31;17.10;62.50
74617;DHT22;63123;50.906;4.198;2024-02-16T03:59:57;17.20;62.60
74617;DHT22;63123;50.906;4.198;2024-02-16T04:02:22;17.10;62.60
74617;DHT22;63123;50.906;4.198;2024-02-16T04:04:48;17.10;62.60
74617;DHT22;63123;50.906;4.198;2024-02-16T04:07:14;17.20;62.60
74617;DHT22;63123;50.906;4.198;2024-02-16T04:09:39;17.10;62.60
74617;DHT22;63123;50.906;4.198;2024-02-16T04:12:05;17.10;62.60
74617;DHT22;63123;50.906;4.198;2024-02-16T04:14:30;17.10;62.60
74617;DHT22;63123;50.906;4.198;2024-02-16T04:16:56;17.10;62.80
74617;DHT22;63123;50.906;4.198;2024-02-16T04:19:28;17.10;62.70
74617;DHT22;63123;50.906;4.198;2024-02-16T04:21:53;17.10;62.70
74617;DHT22;63123;50.906;4.198;2024-02-16T04:24:19;17.20;62.80
74617;DHT22;63123;50.906;4.198;2024-02-16T04:26:45;17.10;62.80
74617;DHT22;63123;50.906;4.198;2024-02-16T04:29:10;17.10;62.80
74617;DHT22;63123;50.906;4.198;2024-02-16T04:31:40;17.10;62.80
74617;DHT22;63123;50.906;4.198;2024-02-16T04:34:07;17.10;62.80
74617;DHT22;63123;50.906;4.198;2024-02-16T04:36:33;17.10;62.90
74617;DHT22;63123;50.906;4.198;2024-02-16T04:38:58;17.10;62.80
74617;DHT22;63123;50.906;4.198;2024-02-16T04:41:24;17.10;62.90
74617;DHT22;63123;50.906;4.198;2024-02-16T04:43:49;17.10;62.90
74617;DHT22;63123;50.906;4.198;2024-02-16T04:46:15;17.10;62.90
74617;DHT22;63123;50.906;4.198;2024-02-16T04:48:41;17.10;62.90
74617;DHT22;63123;50.906;4.198;2024-02-16T04:51:06;17.10;62.90
74617;DHT22;63123;50.906;4.198;2024-02-16T04:53:32;17.10;62.90
74617;DHT22;63123;50.906;4.198;2024-02-16T04:55:57;17.10;63.00
74617;DHT22;63123;50.906;4.198;2024-02-16T04:58:23;17.20;63.00
74617;DHT22;63123;50.906;4.198;2024-02-16T05:00:49;17.10;63.00
74617;DHT22;63123;50.906;4.198;2024-02-16T05:03:15;17.10;63.00
74617;DHT22;63123;50.906;4.198;2024-02-16T05:05:40;17.10;63.00
74617;DHT22;63123;50.906;4.198;2024-02-16T05:08:06;17.10;63.00
74617;DHT22;63123;50.906;4.198;2024-02-16T05:10:32;17.10;63.00
74617;DHT22;63123;50.906;4.198;2024-02-16T05:12:57;17.10;63.00
74617;DHT22;63123;50.906;4.198;2024-02-16T05:15:23;17.10;63.10
74617;DHT22;63123;50.906;4.198;2024-02-16T05:17:49;17.10;63.00
74617;DHT22;63123;50.906;4.198;2024-02-16T05:20:14;17.10;63.00
74617;DHT22;63123;50.906;4.198;2024-02-16T05:22:49;17.10;63.10
74617;DHT22;63123;50.906;4.198;2024-02-16T05:25:15;17.10;63.10
74617;DHT22;63123;50.906;4.198;2024-02-16T05:27:41;17.10;63.20
74617;DHT22;63123;50.906;4.198;2024-02-16T05:30:09;17.10;63.20
74617;DHT22;63123;50.906;4.198;2024-02-16T05:32:35;17.10;63.30
74617;DHT22;63123;50.906;4.198;2024-02-16T05:35:01;17.10;63.30
74617;DHT22;63123;50.906;4.198;2024-02-16T05:37:30;17.10;63.30
74617;DHT22;63123;50.906;4.198;2024-02-16T05:39:57;17.10;63.30
74617;DHT22;63123;50.906;4.198;2024-02-16T05:42:33;17.10;63.20
74617;DHT22;63123;50.906;4.198;2024-02-16T05:44:59;17.20;63.30
74617;DHT22;63123;50.906;4.198;2024-02-16T05:47:25;17.10;63.20
74617;DHT22;63123;50.906;4.198;2024-02-16T05:49:50;17.10;63.30
74617;DHT22;63123;50.906;4.198;2024-02-16T05:52:16;17.10;63.30
74617;DHT22;63123;50.906;4.198;2024-02-16T05:54:46;17.10;63.20
74617;DHT22;63123;50.906;4.198;2024-02-16T05:57:12;17.10;63.30
74617;DHT22;63123;50.906;4.198;2024-02-16T05:59:38;17.10;63.20
74617;DHT22;63123;50.906;4.198;2024-02-16T06:02:04;17.10;63.30
74617;DHT22;63123;50.906;4.198;2024-02-16T06:04:30;17.10;63.30
74617;DHT22;63123;50.906;4.198;2024-02-16T06:06:55;17.10;63.30
74617;DHT22;63123;50.906;4.198;2024-02-16T06:09:21;17.10;63.30
74617;DHT22;63123;50.906;4.198;2024-02-16T06:11:47;17.10;63.30
74617;DHT22;63123;50.906;4.198;2024-02-16T06:14:14;17.10;63.30
74617;DHT22;63123;50.906;4.198;2024-02-16T06:16:40;17.10;63.30
74617;DHT22;63123;50.906;4.198;2024-02-16T06:19:07;17.10;63.40
74617;DHT22;63123;50.906;4.198;2024-02-16T06:21:34;17.10;63.50
74617;DHT22;63123;50.906;4.198;2024-02-16T06:23:59;17.10;63.40
74617;DHT22;63123;50.906;4.198;2024-02-16T06:26:25;17.20;63.50
74617;DHT22;63123;50.906;4.198;2024-02-16T06:28:50;17.10;63.40
74617;DHT22;63123;50.906;4.198;2024-02-16T06:31:16;17.10;63.50
74617;DHT22;63123;50.906;4.198;2024-02-16T06:33:41;17.20;63.60
74617;DHT22;63123;50.906;4.198;2024-02-16T06:36:07;17.10;63.50
74617;DHT22;63123;50.906;4.198;2024-02-16T06:38:32;17.10;63.60
74617;DHT22;63123;50.906;4.198;2024-02-16T06:40:58;17.20;63.60
74617;DHT22;63123;50.906;4.198;2024-02-16T06:43:23;17.10;63.60
74617;DHT22;63123;50.906;4.198;2024-02-16T06:45:49;17.10;63.70
74617;DHT22;63123;50.906;4.198;2024-02-16T06:48:14;17.10;63.70
74617;DHT22;63123;50.906;4.198;2024-02-16T06:50:40;17.10;63.80
74617;DHT22;63123;50.906;4.198;2024-02-16T06:53:05;17.10;63.80
74617;DHT22;63123;50.906;4.198;2024-02-16T06:55:31;17.10;63.80
74617;DHT22;63123;50.906;4.198;2024-02-16T06:57:56;17.10;63.90
74617;DHT22;63123;50.906;4.198;2024-02-16T07:00:22;17.10;63.90
74617;DHT22;63123;50.906;4.198;2024-02-16T07:02:48;17.10;64.00
74617;DHT22;63123;50.906;4.198;2024-02-16T07:05:13;17.10;64.00
74617;DHT22;63123;50.906;4.198;2024-02-16T07:07:39;17.10;64.10
74617;DHT22;63123;50.906;4.198;2024-02-16T07:10:05;17.10;64.10
74617;DHT22;63123;50.906;4.198;2024-02-16T07:12:30;17.10;64.10
74617;DHT22;63123;50.906;4.198;2024-02-16T07:14:58;17.10;64.10
74617;DHT22;63123;50.906;4.198;2024-02-16T07:17:23;17.20;64.20
74617;DHT22;63123;50.906;4.198;2024-02-16T07:19:49;17.10;64.20
74617;DHT22;63123;50.906;4.198;2024-02-16T07:22:14;17.20;64.30
74617;DHT22;63123;50.906;4.198;2024-02-16T07:24:40;17.10;64.30
74617;DHT22;63123;50.906;4.198;2024-02-16T07:27:06;17.10;64.30
74617;DHT22;63123;50.906;4.198;2024-02-16T07:29:31;17.10;64.30
74617;DHT22;63123;50.906;4.198;2024-02-16T07:31:57;17.10;64.40
74617;DHT22;63123;50.906;4.198;2024-02-16T07:34:22;17.20;64.40
74617;DHT22;63123;50.906;4.198;2024-02-16T07:36:48;17.10;64.40
74617;DHT22;63123;50.906;4.198;2024-02-16T07:39:13;17.10;64.40
74617;DHT22;63123;50.906;4.198;2024-02-16T07:41:39;17.20;64.50
74617;DHT22;63123;50.906;4.198;2024-02-16T07:44:05;17.10;64.50
74617;DHT22;63123;50.906;4.198;2024-02-16T07:46:31;17.10;64.50
74617;DHT22;63123;50.906;4.198;2024-02-16T07:48:56;17.20;64.60
74617;DHT22;63123;50.906;4.198;2024-02-16T07:51:22;17.20;64.60
74617;DHT22;63123;50.906;4.198;2024-02-16T07:53:47;17.10;64.60
74617;DHT22;63123;50.906;4.198;2024-02-16T07:56:13;17.20;64.60
74617;DHT22;63123;50.906;4.198;2024-02-16T07:58:40;17.10;64.60
74617;DHT22;63123;50.906;4.198;2024-02-16T08:01:07;17.10;64.60
74617;DHT22;63123;50.906;4.198;2024-02-16T08:03:32;17.10;64.70
74617;DHT22;63123;50.906;4.198;2024-02-16T08:05:59;17.10;64.70
74617;DHT22;63123;50.906;4.198;2024-02-16T08:08:24;17.10;64.70
74617;DHT22;63123;50.906;4.198;2024-02-16T08:10:50;17.20;64.80
74617;DHT22;63123;50.906;4.198;2024-02-16T08:13:16;17.10;64.70
74617;DHT22;63123;50.906;4.198;2024-02-16T08:15:41;17.10;64.80
74617;DHT22;63123;50.906;4.198;2024-02-16T08:18:07;17.10;64.80
74617;DHT22;63123;50.906;4.198;2024-02-16T08:20:32;17.20;64.80
74617;DHT22;63123;50.906;4.198;2024-02-16T08:22:58;17.10;64.80
74617;DHT22;63123;50.906;4.198;2024-02-16T08:25:24;17.10;64.80
74617;DHT22;63123;50.906;4.198;2024-02-16T08:27:50;17.20;64.80
74617;DHT22;63123;50.906;4.198;2024-02-16T08:30:15;17.10;64.80
74617;DHT22;63123;50.906;4.198;2024-02-16T08:32:41;17.10;64.80
74617;DHT22;63123;50.906;4.198;2024-02-16T08:35:06;17.10;64.80
74617;DHT22;63123;50.906;4.198;2024-02-16T08:37:32;17.10;64.80
74617;DHT22;63123;50.906;4.198;2024-02-16T08:39:58;17.10;64.80
74617;DHT22;63123;50.906;4.198;2024-02-16T08:42:24;17.10;64.80
74617;DHT22;63123;50.906;4.198;2024-02-16T08:44:49;17.10;64.80
74617;DHT22;63123;50.906;4.198;2024-02-16T08:47:15;17.10;64.90
74617;DHT22;63123;50.906;4.198;2024-02-16T08:49:41;17.20;65.00
74617;DHT22;63123;50.906;4.198;2024-02-16T08:52:07;17.20;65.00
74617;DHT22;63123;50.906;4.198;2024-02-16T08:54:33;17.10;64.90
74617;DHT22;63123;50.906;4.198;2024-02-16T08:56:59;17.10;65.00
74617;DHT22;63123;50.906;4.198;2024-02-16T08:59:25;17.10;65.00
74617;DHT22;63123;50.906;4.198;2024-02-16T09:01:50;17.20;65.10
74617;DHT22;63123;50.906;4.198;2024-02-16T09:04:16;17.20;65.10
74617;DHT22;63123;50.906;4.198;2024-02-16T09:06:41;17.10;65.10
74617;DHT22;63123;50.906;4.198;2024-02-16T09:09:07;17.20;65.10
74617;DHT22;63123;50.906;4.198;2024-02-16T09:11:33;17.20;65.10
74617;DHT22;63123;50.906;4.198;2024-02-16T09:13:59;17.20;65.10
74617;DHT22;63123;50.906;4.198;2024-02-16T09:16:25;17.10;65.10
74617;DHT22;63123;50.906;4.198;2024-02-16T09:18:50;17.20;65.20
74617;DHT22;63123;50.906;4.198;2024-02-16T09:21:16;17.20;65.30
74617;DHT22;63123;50.906;4.198;2024-02-16T09:23:41;17.20;65.90
74617;DHT22;63123;50.906;4.198;2024-02-16T09:26:07;17.10;65.20
74617;DHT22;63123;50.906;4.198;2024-02-16T09:28:38;17.10;65.30
74617;DHT22;63123;50.906;4.198;2024-02-16T09:31:04;17.20;65.40
74617;DHT22;63123;50.906;4.198;2024-02-16T09:33:29;17.20;65.70
74617;DHT22;63123;50.906;4.198;2024-02-16T09:35:55;17.20;65.70
74617;DHT22;63123;50.906;4.198;2024-02-16T09:38:20;17.20;66.00
74617;DHT22;63123;50.906;4.198;2024-02-16T09:40:46;17.20;66.00
74617;DHT22;63123;50.906;4.198;2024-02-16T09:43:22;17.20;66.70
74617;DHT22;63123;50.906;4.198;2024-02-16T09:45:51;17.20;66.10
74617;DHT22;63123;50.906;4.198;2024-02-16T09:48:17;17.20;66.30
74617;DHT22;63123;50.906;4.198;2024-02-16T09:50:42;17.20;65.90
74617;DHT22;63123;50.906;4.198;2024-02-16T09:53:08;17.20;66.20
74617;DHT22;63123;50.906;4.198;2024-02-16T09:55:34;17.20;66.30
74617;DHT22;63123;50.906;4.198;2024-02-16T09:58:00;17.20;66.40
74617;DHT22;63123;50.906;4.198;2024-02-16T10:00:26;17.20;66.50
74617;DHT22;63123;50.906;4.198;2024-02-16T10:02:52;17.20;66.50
74617;DHT22;63123;50.906;4.198;2024-02-16T10:05:19;17.20;66.50
74617;DHT22;63123;50.906;4.198;2024-02-16T10:07:44;17.30;66.60
74617;DHT22;63123;50.906;4.198;2024-02-16T10:10:22;17.20;66.60
74617;DHT22;63123;50.906;4.198;2024-02-16T10:12:48;17.30;66.60
74617;DHT22;63123;50.906;4.198;2024-02-16T10:15:21;17.30;66.60
74617;DHT22;63123;50.906;4.198;2024-02-16T10:18:03;17.20;66.30
74617;DHT22;63123;50.906;4.198;2024-02-16T10:20:29;17.20;66.50
74617;DHT22;63123;50.906;4.198;2024-02-16T10:23:02;17.30;66.70
74617;DHT22;63123;50.906;4.198;2024-02-16T10:25:28;17.20;66.80
74617;DHT22;63123;50.906;4.198;2024-02-16T10:27:53;17.20;66.80
74617;DHT22;63123;50.906;4.198;2024-02-16T10:30:20;17.30;66.90
74617;DHT22;63123;50.906;4.198;2024-02-16T10:32:47;17.30;66.90
74617;DHT22;63123;50.906;4.198;2024-02-16T10:35:13;17.30;66.90
74617;DHT22;63123;50.906;4.198;2024-02-16T10:37:39;17.30;66.90
74617;DHT22;63123;50.906;4.198;2024-02-16T10:40:05;17.30;67.00
74617;DHT22;63123;50.906;4.198;2024-02-16T10:42:32;17.30;67.10
74617;DHT22;63123;50.906;4.198;2024-02-16T10:45:00;17.30;67.00
74617;DHT22;63123;50.906;4.198;2024-02-16T10:47:25;17.30;67.10
74617;DHT22;63123;50.906;4.198;2024-02-16T10:49:51;17.30;67.20
74617;DHT22;63123;50.906;4.198;2024-02-16T10:52:16;17.30;67.30
74617;DHT22;63123;50.906;4.198;2024-02-16T10:54:42;17.30;67.20
74617;DHT22;63123;50.906;4.198;2024-02-16T10:57:08;17.30;67.20
74617;DHT22;63123;50.906;4.198;2024-02-16T10:59:40;17.30;67.30
74617;DHT22;63123;50.906;4.198;2024-02-16T11:02:07;17.30;67.40
74617;DHT22;63123;50.906;4.198;2024-02-16T11:04:36;17.30;67.00
74617;DHT22;63123;50.906;4.198;2024-02-16T11:07:09;17.30;67.00
74617;DHT22;63123;50.906;4.198;2024-02-16T11:09:35;17.30;67.20
74617;DHT22;63123;50.906;4.198;2024-02-16T11:12:02;17.30;67.20
74617;DHT22;63123;50.906;4.198;2024-02-16T11:14:35;17.30;67.30
74617;DHT22;63123;50.906;4.198;2024-02-16T11:17:02;17.30;67.30
74617;DHT22;63123;50.906;4.198;2024-02-16T11:19:29;17.30;67.30
74617;DHT22;63123;50.906;4.198;2024-02-16T11:21:58;17.30;67.20
74617;DHT22;63123;50.906;4.198;2024-02-16T11:24:33;17.30;67.20
74617;DHT22;63123;50.906;4.198;2024-02-16T11:27:05;17.30;67.20
74617;DHT22;63123;50.906;4.198;2024-02-16T11:29:31;17.30;67.20
74617;DHT22;63123;50.906;4.198;2024-02-16T11:31:57;17.30;67.20
74617;DHT22;63123;50.906;4.198;2024-02-16T11:34:23;17.30;67.20
74617;DHT22;63123;50.906;4.198;2024-02-16T11:36:50;17.30;67.20
74617;DHT22;63123;50.906;4.198;2024-02-16T11:39:16;17.30;67.20
74617;DHT22;63123;50.906;4.198;2024-02-16T11:41:42;17.30;67.20
74617;DHT22;63123;50.906;4.198;2024-02-16T11:44:08;17.30;67.20
74617;DHT22;63123;50.906;4.198;2024-02-16T11:46:34;17.30;67.30
74617;DHT22;63123;50.906;4.198;2024-02-16T11:49:04;17.20;67.20
74617;DHT22;63123;50.906;4.198;2024-02-16T11:51:30;17.30;67.20
74617;DHT22;63123;50.906;4.198;2024-02-16T11:53:56;17.30;67.30
74617;DHT22;63123;50.906;4.198;2024-02-16T11:56:23;17.20;67.20
74617;DHT22;63123;50.906;4.198;2024-02-16T11:58:49;17.30;67.30
74617;DHT22;63123;50.906;4.198;2024-02-16T12:01:15;17.30;67.20
74617;DHT22;63123;50.906;4.198;2024-02-16T12:03:41;17.30;67.20
74617;DHT22;63123;50.906;4.198;2024-02-16T12:06:07;17.30;67.20
74617;DHT22;63123;50.906;4.198;2024-02-16T12:08:33;17.20;67.10
74617;DHT22;63123;50.906;4.198;2024-02-16T12:10:59;17.20;67.30
74617;DHT22;63123;50.906;4.198;2024-02-16T12:13:25;17.30;67.30
74617;DHT22;63123;50.906;4.198;2024-02-16T12:15:51;17.30;67.40
74617;DHT22;63123;50.906;4.198;2024-02-16T12:18:22;17.30;67.30
74617;DHT22;63123;50.906;4.198;2024-02-16T12:21:00;17.30;67.40
74617;DHT22;63123;50.906;4.198;2024-02-16T12:23:26;17.30;67.40
74617;DHT22;63123;50.906;4.198;2024-02-16T12:25:52;17.30;67.40
74617;DHT22;63123;50.906;4.198;2024-02-16T12:28:18;17.30;67.40
74617;DHT22;63123;50.906;4.198;2024-02-16T12:30:48;17.30;67.40
74617;DHT22;63123;50.906;4.198;2024-02-16T12:33:14;17.30;67.80
74617;DHT22;63123;50.906;4.198;2024-02-16T12:35:39;17.30;67.40
74617;DHT22;63123;50.906;4.198;2024-02-16T12:38:05;17.30;67.50
74617;DHT22;63123;50.906;4.198;2024-02-16T12:40:31;17.30;67.60
74617;DHT22;63123;50.906;4.198;2024-02-16T12:42:56;17.30;67.60
74617;DHT22;63123;50.906;4.198;2024-02-16T12:45:22;17.30;67.60
74617;DHT22;63123;50.906;4.198;2024-02-16T12:47:47;17.30;67.70
74617;DHT22;63123;50.906;4.198;2024-02-16T12:50:14;17.30;67.70
74617;DHT22;63123;50.906;4.198;2024-02-16T12:52:39;17.30;67.90
74617;DHT22;63123;50.906;4.198;2024-02-16T12:55:06;17.40;67.90
74617;DHT22;63123;50.906;4.198;2024-02-16T12:57:31;17.30;67.90
74617;DHT22;63123;50.906;4.198;2024-02-16T12:59:57;17.40;68.00
74617;DHT22;63123;50.906;4.198;2024-02-16T13:02:22;17.30;67.90
74617;DHT22;63123;50.906;4.198;2024-02-16T13:04:48;17.30;67.90
74617;DHT22;63123;50.906;4.198;2024-02-16T13:07:13;17.30;67.90
74617;DHT22;63123;50.906;4.198;2024-02-16T13:09:39;17.30;67.90
74617;DHT22;63123;50.906;4.198;2024-02-16T13:12:05;17.40;68.00
74617;DHT22;63123;50.906;4.198;2024-02-16T13:14:30;17.40;68.10
74617;DHT22;63123;50.906;4.198;2024-02-16T13:16:56;17.40;68.00
74617;DHT22;63123;50.906;4.198;2024-02-16T13:19:21;17.40;68.10
74617;DHT22;63123;50.906;4.198;2024-02-16T13:21:47;17.40;68.10
74617;DHT22;63123;50.906;4.198;2024-02-16T13:24:12;17.40;68.20
74617;DHT22;63123;50.906;4.198;2024-02-16T13:26:38;17.40;68.20
74617;DHT22;63123;50.906;4.198;2024-02-16T13:29:03;17.40;68.10
74617;DHT22;63123;50.906;4.198;2024-02-16T13:31:29;17.40;68.10
74617;DHT22;63123;50.906;4.198;2024-02-16T13:33:55;17.40;68.20
74617;DHT22;63123;50.906;4.198;2024-02-16T13:36:21;17.40;68.10
74617;DHT22;63123;50.906;4.198;2024-02-16T13:38:46;17.40;68.10
74617;DHT22;63123;50.906;4.198;2024-02-16T13:41:12;17.40;68.30
74617;DHT22;63123;50.906;4.198;2024-02-16T13:43:37;17.40;68.30
74617;DHT22;63123;50.906;4.198;2024-02-16T13:46:03;17.40;68.20
74617;DHT22;63123;50.906;4.198;2024-02-16T13:48:29;17.40;68.20
74617;DHT22;63123;50.906;4.198;2024-02-16T13:50:56;17.40;68.30
74617;DHT22;63123;50.906;4.198;2024-02-16T13:53:22;17.50;68.20
74617;DHT22;63123;50.906;4.198;2024-02-16T13:55:48;17.50;68.20
74617;DHT22;63123;50.906;4.198;2024-02-16T13:58:14;17.40;68.10
74617;DHT22;63123;50.906;4.198;2024-02-16T14:00:39;17.50;68.10
74617;DHT22;63123;50.906;4.198;2024-02-16T14:03:09;17.40;68.00
74617;DHT22;63123;50.906;4.198;2024-02-16T14:05:37;17.50;68.00
74617;DHT22;63123;50.906;4.198;2024-02-16T14:08:03;17.40;68.00
74617;DHT22;63123;50.906;4.198;2024-02-16T14:10:31;17.40;67.80
74617;DHT22;63123;50.906;4.198;2024-02-16T14:12:57;17.40;67.90
74617;DHT22;63123;50.906;4.198;2024-02-16T14:15:23;17.50;68.10
74617;DHT22;63123;50.906;4.198;2024-02-16T14:17:48;17.40;68.00
74617;DHT22;63123;50.906;4.198;2024-02-16T14:20:14;17.40;68.00
74617;DHT22;63123;50.906;4.198;2024-02-16T14:22:39;17.50;68.00
74617;DHT22;63123;50.906;4.198;2024-02-16T14:25:05;17.50;68.00
74617;DHT22;63123;50.906;4.198;2024-02-16T14:27:31;17.50;68.00
74617;DHT22;63123;50.906;4.198;2024-02-16T14:29:56;17.50;68.00
74617;DHT22;63123;50.906;4.198;2024-02-16T14:32:22;17.50;68.00
74617;DHT22;63123;50.906;4.198;2024-02-16T14:34:47;17.50;68.00
74617;DHT22;63123;50.906;4.198;2024-02-16T14:37:13;17.50;67.80
74617;DHT22;63123;50.906;4.198;2024-02-16T14:39:38;17.50;67.90
74617;DHT22;63123;50.906;4.198;2024-02-16T14:42:04;17.50;68.00
74617;DHT22;63123;50.906;4.198;2024-02-16T14:44:30;17.50;68.00
74617;DHT22;63123;50.906;4.198;2024-02-16T14:46:55;17.50;68.00
74617;DHT22;63123;50.906;4.198;2024-02-16T14:49:22;17.50;68.00
74617;DHT22;63123;50.906;4.198;2024-02-16T14:51:50;17.50;68.00
74617;DHT22;63123;50.906;4.198;2024-02-16T14:54:15;17.50;67.90
74617;DHT22;63123;50.906;4.198;2024-02-16T14:56:41;17.50;68.10
74617;DHT22;63123;50.906;4.198;2024-02-16T14:59:07;17.50;68.00
74617;DHT22;63123;50.906;4.198;2024-02-16T15:01:32;17.50;67.90
74617;DHT22;63123;50.906;4.198;2024-02-16T15:03:58;17.50;68.40
74617;DHT22;63123;50.906;4.198;2024-02-16T15:06:24;17.40;67.80
74617;DHT22;63123;50.906;4.198;2024-02-16T15:08:50;17.40;67.70
74617;DHT22;63123;50.906;4.198;2024-02-16T15:11:15;17.40;67.70
74617;DHT22;63123;50.906;4.198;2024-02-16T15:13:42;17.40;67.60
74617;DHT22;63123;50.906;4.198;2024-02-16T15:16:08;17.40;67.60
74617;DHT22;63123;50.906;4.198;2024-02-16T15:18:34;17.40;67.60
74617;DHT22;63123;50.906;4.198;2024-02-16T15:21:00;17.40;67.60
74617;DHT22;63123;50.906;4.198;2024-02-16T15:23:26;17.40;67.60